sensor_id;sensor_type;location;lat;lon;timestamp;P1;durP1;ratioP1;P2;durP2;ratioP2
69463;SDS011;56665;41.106;16.688;2023-05-10T00:00:12;16.48;;;10.50;;
69463;SDS011;56665;41.106;16.688;2023-05-10T00:03:18;14.75;;;10.18;;
69463;SDS011;56665;41.106;16.688;2023-05-10T00:06:22;15.65;;;9.63;;
69463;SDS011;56665;41.106;16.688;2023-05-10T00:09:26;17.43;;;10.77;;
69463;SDS011;56665;41.106;16.688;2023-05-10T00:12:30;15.48;;;10.15;;
69463;SDS011;56665;41.106;16.688;2023-05-10T00:15:36;17.48;;;10.60;;
69463;SDS011;56665;41.106;16.688;2023-05-10T00:18:40;16.77;;;10.50;;
69463;SDS011;56665;41.106;16.688;2023-05-10T00:21:45;15.40;;;10.55;;
69463;SDS011;56665;41.106;16.688;2023-05-10T00:24:49;18.80;;;10.87;;
69463;SDS011;56665;41.106;16.688;2023-05-10T00:27:53;18.85;;;11.35;;
69463;SDS011;56665;41.106;16.688;2023-05-10T00:30:58;15.65;;;10.70;;
69463;SDS011;56665;41.106;16.688;2023-05-10T00:34:06;17.33;;;11.25;;
69463;SDS011;56665;41.106;16.688;2023-05-10T00:37:10;17.85;;;11.05;;
69463;SDS011;56665;41.106;16.688;2023-05-10T00:40:14;19.47;;;11.30;;
69463;SDS011;56665;41.106;16.688;2023-05-10T00:43:23;16.80;;;10.80;;
69463;SDS011;56665;41.106;16.688;2023-05-10T00:46:26;16.08;;;10.95;;
69463;SDS011;56665;41.106;16.688;2023-05-10T00:49:30;15.23;;;10.40;;
69463;SDS011;56665;41.106;16.688;2023-05-10T00:52:34;15.57;;;10.55;;
69463;SDS011;56665;41.106;16.688;2023-05-10T00:55:38;18.47;;;10.27;;
69463;SDS011;56665;41.106;16.688;2023-05-10T00:58:42;16.52;;;10.55;;
69463;SDS011;56665;41.106;16.688;2023-05-10T01:01:46;17.08;;;11.32;;
69463;SDS011;56665;41.106;16.688;2023-05-10T01:04:50;19.27;;;11.23;;
69463;SDS011;56665;41.106;16.688;2023-05-10T01:07:55;17.67;;;11.07;;
69463;SDS011;56665;41.106;16.688;2023-05-10T01:11:01;15.27;;;10.87;;
69463;SDS011;56665;41.106;16.688;2023-05-10T01:14:06;19.33;;;11.45;;
69463;SDS011;56665;41.106;16.688;2023-05-10T01:17:10;16.40;;;11.27;;
69463;SDS011;56665;41.106;16.688;2023-05-10T01:20:16;16.70;;;10.70;;
69463;SDS011;56665;41.106;16.688;2023-05-10T01:30:08;19.27;;;14.25;;
69463;SDS011;56665;41.106;16.688;2023-05-10T01:36:48;21.58;;;13.07;;
69463;SDS011;56665;41.106;16.688;2023-05-10T01:40:01;18.30;;;11.80;;
69463;SDS011;56665;41.106;16.688;2023-05-10T01:43:14;17.87;;;11.03;;
69463;SDS011;56665;41.106;16.688;2023-05-10T01:46:36;18.05;;;11.00;;
69463;SDS011;56665;41.106;16.688;2023-05-10T01:49:42;17.10;;;11.15;;
69463;SDS011;56665;41.106;16.688;2023-05-10T01:52:58;18.58;;;11.00;;
69463;SDS011;56665;41.106;16.688;2023-05-10T01:56:06;18.10;;;12.05;;
69463;SDS011;56665;41.106;16.688;2023-05-10T01:59:13;18.47;;;12.00;;
69463;SDS011;56665;41.106;16.688;2023-05-10T02:02:20;17.80;;;11.60;;
69463;SDS011;56665;41.106;16.688;2023-05-10T02:05:26;17.40;;;11.10;;
69463;SDS011;56665;41.106;16.688;2023-05-10T02:08:32;17.30;;;11.02;;
69463;SDS011;56665;41.106;16.688;2023-05-10T02:11:41;16.85;;;10.93;;
69463;SDS011;56665;41.106;16.688;2023-05-10T02:14:47;16.17;;;10.73;;
69463;SDS011;56665;41.106;16.688;2023-05-10T02:17:52;15.70;;;10.52;;
69463;SDS011;56665;41.106;16.688;2023-05-10T02:20:58;20.52;;;11.68;;
69463;SDS011;56665;41.106;16.688;2023-05-10T02:24:02;19.70;;;12.43;;
69463;SDS011;56665;41.106;16.688;2023-05-10T02:27:08;20.60;;;12.93;;
69463;SDS011;56665;41.106;16.688;2023-05-10T02:30:15;17.23;;;11.43;;
69463;SDS011;56665;41.106;16.688;2023-05-10T02:33:21;16.13;;;10.98;;
69463;SDS011;56665;41.106;16.688;2023-05-10T02:36:26;16.27;;;11.00;;
69463;SDS011;56665;41.106;16.688;2023-05-10T02:39:31;17.02;;;10.82;;
69463;SDS011;56665;41.106;16.688;2023-05-10T02:42:37;16.25;;;10.85;;
69463;SDS011;56665;41.106;16.688;2023-05-10T02:45:41;16.73;;;10.77;;
69463;SDS011;56665;41.106;16.688;2023-05-10T02:48:47;16.80;;;10.60;;
69463;SDS011;56665;41.106;16.688;2023-05-10T02:51:54;18.33;;;11.63;;
69463;SDS011;56665;41.106;16.688;2023-05-10T02:55:02;15.98;;;10.68;;
69463;SDS011;56665;41.106;16.688;2023-05-10T02:58:08;21.15;;;11.18;;
69463;SDS011;56665;41.106;16.688;2023-05-10T03:01:12;18.23;;;11.10;;
69463;SDS011;56665;41.106;16.688;2023-05-10T03:04:17;18.10;;;10.88;;
69463;SDS011;56665;41.106;16.688;2023-05-10T03:07:22;16.70;;;11.55;;
69463;SDS011;56665;41.106;16.688;2023-05-10T03:10:28;20.55;;;11.35;;
69463;SDS011;56665;41.106;16.688;2023-05-10T03:17:47;18.90;;;11.60;;
69463;SDS011;56665;41.106;16.688;2023-05-10T03:20:50;16.42;;;10.80;;
69463;SDS011;56665;41.106;16.688;2023-05-10T03:24:09;17.80;;;11.82;;
69463;SDS011;56665;41.106;16.688;2023-05-10T03:27:16;19.67;;;12.15;;
69463;SDS011;56665;41.106;16.688;2023-05-10T03:30:20;20.15;;;12.60;;
69463;SDS011;56665;41.106;16.688;2023-05-10T03:33:24;17.43;;;11.43;;
69463;SDS011;56665;41.106;16.688;2023-05-10T03:36:30;18.25;;;10.88;;
69463;SDS011;56665;41.106;16.688;2023-05-10T03:39:35;18.33;;;11.43;;
69463;SDS011;56665;41.106;16.688;2023-05-10T03:42:39;16.65;;;11.75;;
69463;SDS011;56665;41.106;16.688;2023-05-10T03:45:44;18.50;;;11.25;;
69463;SDS011;56665;41.106;16.688;2023-05-10T03:48:48;15.70;;;10.43;;
69463;SDS011;56665;41.106;16.688;2023-05-10T03:51:52;18.38;;;11.18;;
69463;SDS011;56665;41.106;16.688;2023-05-10T03:54:56;18.60;;;12.18;;
69463;SDS011;56665;41.106;16.688;2023-05-10T03:58:00;17.13;;;11.80;;
69463;SDS011;56665;41.106;16.688;2023-05-10T04:01:05;20.08;;;12.38;;
69463;SDS011;56665;41.106;16.688;2023-05-10T04:04:09;20.37;;;12.27;;
69463;SDS011;56665;41.106;16.688;2023-05-10T04:07:15;19.10;;;11.82;;
69463;SDS011;56665;41.106;16.688;2023-05-10T04:10:19;21.17;;;12.80;;
69463;SDS011;56665;41.106;16.688;2023-05-10T04:13:23;18.80;;;11.48;;
69463;SDS011;56665;41.106;16.688;2023-05-10T04:16:28;18.58;;;12.00;;
69463;SDS011;56665;41.106;16.688;2023-05-10T04:19:32;20.80;;;12.07;;
69463;SDS011;56665;41.106;16.688;2023-05-10T04:22:38;20.23;;;12.27;;
69463;SDS011;56665;41.106;16.688;2023-05-10T04:25:43;20.83;;;11.95;;
69463;SDS011;56665;41.106;16.688;2023-05-10T04:28:47;18.65;;;11.75;;
69463;SDS011;56665;41.106;16.688;2023-05-10T04:31:52;17.30;;;11.90;;
69463;SDS011;56665;41.106;16.688;2023-05-10T04:34:56;21.60;;;12.03;;
69463;SDS011;56665;41.106;16.688;2023-05-10T04:38:00;15.85;;;10.63;;
69463;SDS011;56665;41.106;16.688;2023-05-10T04:41:09;16.17;;;10.45;;
69463;SDS011;56665;41.106;16.688;2023-05-10T04:44:14;19.88;;;11.07;;
69463;SDS011;56665;41.106;16.688;2023-05-10T04:47:19;16.98;;;12.13;;
69463;SDS011;56665;41.106;16.688;2023-05-10T04:50:24;17.77;;;10.73;;
69463;SDS011;56665;41.106;16.688;2023-05-10T04:53:27;15.20;;;10.52;;
69463;SDS011;56665;41.106;16.688;2023-05-10T04:56:33;14.18;;;9.55;;
69463;SDS011;56665;41.106;16.688;2023-05-10T04:59:38;16.30;;;10.63;;
69463;SDS011;56665;41.106;16.688;2023-05-10T05:02:43;13.73;;;9.30;;
69463;SDS011;56665;41.106;16.688;2023-05-10T05:05:51;13.63;;;9.47;;
69463;SDS011;56665;41.106;16.688;2023-05-10T05:08:56;20.75;;;14.90;;
69463;SDS011;56665;41.106;16.688;2023-05-10T05:12:01;22.05;;;15.20;;
69463;SDS011;56665;41.106;16.688;2023-05-10T05:15:05;17.45;;;12.55;;
69463;SDS011;56665;41.106;16.688;2023-05-10T05:18:12;16.60;;;11.40;;
69463;SDS011;56665;41.106;16.688;2023-05-10T05:21:16;15.43;;;10.27;;
69463;SDS011;56665;41.106;16.688;2023-05-10T05:24:21;16.38;;;11.45;;
69463;SDS011;56665;41.106;16.688;2023-05-10T05:27:27;17.30;;;11.63;;
69463;SDS011;56665;41.106;16.688;2023-05-10T05:30:31;15.63;;;9.90;;
69463;SDS011;56665;41.106;16.688;2023-05-10T05:33:35;16.90;;;10.18;;
69463;SDS011;56665;41.106;16.688;2023-05-10T05:36:41;13.70;;;9.87;;
69463;SDS011;56665;41.106;16.688;2023-05-10T05:39:47;18.90;;;10.73;;
69463;SDS011;56665;41.106;16.688;2023-05-10T05:42:53;14.15;;;10.25;;
69463;SDS011;56665;41.106;16.688;2023-05-10T05:45:57;23.25;;;12.48;;
69463;SDS011;56665;41.106;16.688;2023-05-10T05:49:04;18.58;;;10.63;;
69463;SDS011;56665;41.106;16.688;2023-05-10T05:52:10;15.18;;;9.85;;
69463;SDS011;56665;41.106;16.688;2023-05-10T05:55:14;15.43;;;10.55;;
69463;SDS011;56665;41.106;16.688;2023-05-10T05:58:19;15.52;;;10.85;;
69463;SDS011;56665;41.106;16.688;2023-05-10T06:01:25;17.08;;;10.57;;
69463;SDS011;56665;41.106;16.688;2023-05-10T06:04:29;22.50;;;10.93;;
69463;SDS011;56665;41.106;16.688;2023-05-10T06:07:33;15.57;;;10.63;;
69463;SDS011;56665;41.106;16.688;2023-05-10T06:10:37;16.40;;;11.98;;
69463;SDS011;56665;41.106;16.688;2023-05-10T06:13:41;15.65;;;10.40;;
69463;SDS011;56665;41.106;16.688;2023-05-10T06:16:45;19.60;;;11.10;;
69463;SDS011;56665;41.106;16.688;2023-05-10T06:19:50;16.40;;;10.95;;
69463;SDS011;56665;41.106;16.688;2023-05-10T06:22:55;21.30;;;11.77;;
69463;SDS011;56665;41.106;16.688;2023-05-10T06:26:01;21.58;;;12.60;;
69463;SDS011;56665;41.106;16.688;2023-05-10T06:29:06;23.45;;;13.45;;
69463;SDS011;56665;41.106;16.688;2023-05-10T06:32:10;19.95;;;12.77;;
69463;SDS011;56665;41.106;16.688;2023-05-10T06:35:15;21.08;;;12.82;;
69463;SDS011;56665;41.106;16.688;2023-05-10T06:38:21;19.03;;;12.17;;
69463;SDS011;56665;41.106;16.688;2023-05-10T06:41:25;16.95;;;11.45;;
69463;SDS011;56665;41.106;16.688;2023-05-10T06:44:29;20.10;;;11.75;;
69463;SDS011;56665;41.106;16.688;2023-05-10T06:47:36;21.27;;;12.45;;
69463;SDS011;56665;41.106;16.688;2023-05-10T06:50:41;17.30;;;11.13;;
69463;SDS011;56665;41.106;16.688;2023-05-10T06:53:45;21.20;;;11.83;;
69463;SDS011;56665;41.106;16.688;2023-05-10T06:56:50;17.10;;;9.77;;
69463;SDS011;56665;41.106;16.688;2023-05-10T06:59:55;17.77;;;10.25;;
69463;SDS011;56665;41.106;16.688;2023-05-10T07:03:01;19.67;;;11.60;;
69463;SDS011;56665;41.106;16.688;2023-05-10T07:06:06;16.63;;;11.75;;
69463;SDS011;56665;41.106;16.688;2023-05-10T07:09:10;17.73;;;10.90;;
69463;SDS011;56665;41.106;16.688;2023-05-10T07:12:14;16.35;;;11.38;;
69463;SDS011;56665;41.106;16.688;2023-05-10T07:15:20;18.20;;;11.90;;
69463;SDS011;56665;41.106;16.688;2023-05-10T07:18:24;19.88;;;12.63;;
69463;SDS011;56665;41.106;16.688;2023-05-10T07:21:30;16.52;;;11.00;;
69463;SDS011;56665;41.106;16.688;2023-05-10T07:24:35;17.02;;;10.27;;
69463;SDS011;56665;41.106;16.688;2023-05-10T07:27:41;16.50;;;10.93;;
69463;SDS011;56665;41.106;16.688;2023-05-10T07:30:47;18.10;;;10.60;;
69463;SDS011;56665;41.106;16.688;2023-05-10T07:33:53;15.48;;;9.82;;
69463;SDS011;56665;41.106;16.688;2023-05-10T07:36:58;17.60;;;10.60;;
69463;SDS011;56665;41.106;16.688;2023-05-10T07:40:06;15.63;;;10.30;;
69463;SDS011;56665;41.106;16.688;2023-05-10T07:43:10;16.10;;;9.43;;
69463;SDS011;56665;41.106;16.688;2023-05-10T07:46:14;13.18;;;8.73;;
69463;SDS011;56665;41.106;16.688;2023-05-10T07:49:19;11.98;;;8.18;;
69463;SDS011;56665;41.106;16.688;2023-05-10T07:52:23;13.52;;;10.10;;
69463;SDS011;56665;41.106;16.688;2023-05-10T07:55:27;11.10;;;8.60;;
69463;SDS011;56665;41.106;16.688;2023-05-10T07:58:30;12.27;;;8.70;;
69463;SDS011;56665;41.106;16.688;2023-05-10T08:01:35;15.45;;;9.40;;
69463;SDS011;56665;41.106;16.688;2023-05-10T08:04:41;14.75;;;8.52;;
69463;SDS011;56665;41.106;16.688;2023-05-10T08:07:44;9.50;;;7.43;;
69463;SDS011;56665;41.106;16.688;2023-05-10T08:10:51;13.73;;;9.13;;
69463;SDS011;56665;41.106;16.688;2023-05-10T08:13:55;12.93;;;9.18;;
69463;SDS011;56665;41.106;16.688;2023-05-10T08:17:00;11.02;;;7.80;;
69463;SDS011;56665;41.106;16.688;2023-05-10T08:20:05;12.70;;;8.13;;
69463;SDS011;56665;41.106;16.688;2023-05-10T08:23:13;12.55;;;8.30;;
69463;SDS011;56665;41.106;16.688;2023-05-10T08:26:17;12.30;;;8.65;;
69463;SDS011;56665;41.106;16.688;2023-05-10T08:29:22;10.60;;;8.23;;
69463;SDS011;56665;41.106;16.688;2023-05-10T08:32:26;11.60;;;9.02;;
69463;SDS011;56665;41.106;16.688;2023-05-10T08:35:29;11.82;;;8.35;;
69463;SDS011;56665;41.106;16.688;2023-05-10T08:38:34;13.40;;;9.75;;
69463;SDS011;56665;41.106;16.688;2023-05-10T08:41:38;13.02;;;9.00;;
69463;SDS011;56665;41.106;16.688;2023-05-10T08:44:47;13.20;;;9.68;;
69463;SDS011;56665;41.106;16.688;2023-05-10T08:47:53;13.45;;;8.85;;
69463;SDS011;56665;41.106;16.688;2023-05-10T08:50:58;12.30;;;8.48;;
69463;SDS011;56665;41.106;16.688;2023-05-10T08:54:04;15.82;;;9.65;;
69463;SDS011;56665;41.106;16.688;2023-05-10T08:57:10;10.60;;;7.90;;
69463;SDS011;56665;41.106;16.688;2023-05-10T09:00:14;9.30;;;7.97;;
69463;SDS011;56665;41.106;16.688;2023-05-10T09:03:18;11.80;;;8.25;;
69463;SDS011;56665;41.106;16.688;2023-05-10T09:06:21;11.07;;;8.05;;
69463;SDS011;56665;41.106;16.688;2023-05-10T09:09:26;12.95;;;8.38;;
69463;SDS011;56665;41.106;16.688;2023-05-10T09:12:32;12.05;;;8.07;;
69463;SDS011;56665;41.106;16.688;2023-05-10T09:15:36;11.68;;;8.05;;
69463;SDS011;56665;41.106;16.688;2023-05-10T09:18:40;11.02;;;7.80;;
69463;SDS011;56665;41.106;16.688;2023-05-10T09:21:45;10.75;;;7.50;;
69463;SDS011;56665;41.106;16.688;2023-05-10T09:25:02;12.40;;;8.38;;
69463;SDS011;56665;41.106;16.688;2023-05-10T09:28:08;10.32;;;8.40;;
69463;SDS011;56665;41.106;16.688;2023-05-10T09:31:13;10.38;;;7.97;;
69463;SDS011;56665;41.106;16.688;2023-05-10T09:34:18;12.77;;;8.65;;
69463;SDS011;56665;41.106;16.688;2023-05-10T09:37:29;11.15;;;8.27;;
69463;SDS011;56665;41.106;16.688;2023-05-10T09:40:33;9.75;;;8.27;;
69463;SDS011;56665;41.106;16.688;2023-05-10T09:43:37;9.43;;;7.40;;
69463;SDS011;56665;41.106;16.688;2023-05-10T09:46:48;11.05;;;8.45;;
69463;SDS011;56665;41.106;16.688;2023-05-10T09:49:52;11.02;;;8.55;;
69463;SDS011;56665;41.106;16.688;2023-05-10T09:52:57;11.70;;;8.02;;
69463;SDS011;56665;41.106;16.688;2023-05-10T09:56:05;9.73;;;7.90;;
69463;SDS011;56665;41.106;16.688;2023-05-10T09:59:10;11.57;;;8.07;;
69463;SDS011;56665;41.106;16.688;2023-05-10T10:02:19;10.38;;;7.88;;
69463;SDS011;56665;41.106;16.688;2023-05-10T10:05:28;11.25;;;7.75;;
69463;SDS011;56665;41.106;16.688;2023-05-10T10:08:39;11.32;;;8.13;;
69463;SDS011;56665;41.106;16.688;2023-05-10T10:11:47;11.30;;;7.85;;
69463;SDS011;56665;41.106;16.688;2023-05-10T10:14:53;11.82;;;7.22;;
69463;SDS011;56665;41.106;16.688;2023-05-10T10:17:59;10.70;;;6.85;;
69463;SDS011;56665;41.106;16.688;2023-05-10T10:21:07;9.43;;;7.13;;
69463;SDS011;56665;41.106;16.688;2023-05-10T10:24:12;11.48;;;7.25;;
69463;SDS011;56665;41.106;16.688;2023-05-10T10:27:23;10.10;;;7.28;;
69463;SDS011;56665;41.106;16.688;2023-05-10T10:30:41;9.70;;;7.40;;
69463;SDS011;56665;41.106;16.688;2023-05-10T10:34:00;13.15;;;8.35;;
69463;SDS011;56665;41.106;16.688;2023-05-10T10:37:10;10.27;;;7.30;;
69463;SDS011;56665;41.106;16.688;2023-05-10T10:43:32;11.35;;;7.97;;
69463;SDS011;56665;41.106;16.688;2023-05-10T10:46:58;10.25;;;7.75;;
69463;SDS011;56665;41.106;16.688;2023-05-10T10:50:22;10.48;;;7.30;;
69463;SDS011;56665;41.106;16.688;2023-05-10T10:53:26;9.10;;;7.45;;
69463;SDS011;56665;41.106;16.688;2023-05-10T10:56:34;11.50;;;8.02;;
69463;SDS011;56665;41.106;16.688;2023-05-10T10:59:41;16.98;;;8.15;;
69463;SDS011;56665;41.106;16.688;2023-05-10T11:05:57;9.25;;;7.53;;
69463;SDS011;56665;41.106;16.688;2023-05-10T11:09:05;14.25;;;8.20;;
69463;SDS011;56665;41.106;16.688;2023-05-10T11:12:12;11.48;;;6.93;;
69463;SDS011;56665;41.106;16.688;2023-05-10T11:15:17;12.40;;;6.63;;
69463;SDS011;56665;41.106;16.688;2023-05-10T11:18:24;9.23;;;6.53;;
69463;SDS011;56665;41.106;16.688;2023-05-10T11:21:30;11.27;;;5.63;;
69463;SDS011;56665;41.106;16.688;2023-05-10T11:24:35;11.02;;;6.53;;
69463;SDS011;56665;41.106;16.688;2023-05-10T11:27:41;7.88;;;5.72;;
69463;SDS011;56665;41.106;16.688;2023-05-10T11:30:46;8.93;;;5.85;;
69463;SDS011;56665;41.106;16.688;2023-05-10T11:33:51;11.05;;;6.85;;
69463;SDS011;56665;41.106;16.688;2023-05-10T11:37:01;11.38;;;6.55;;
69463;SDS011;56665;41.106;16.688;2023-05-10T11:40:07;8.45;;;6.35;;
69463;SDS011;56665;41.106;16.688;2023-05-10T11:43:14;10.00;;;6.63;;
69463;SDS011;56665;41.106;16.688;2023-05-10T11:46:20;9.57;;;6.28;;
69463;SDS011;56665;41.106;16.688;2023-05-10T11:49:25;8.93;;;6.20;;
69463;SDS011;56665;41.106;16.688;2023-05-10T11:52:29;7.82;;;6.05;;
69463;SDS011;56665;41.106;16.688;2023-05-10T11:55:42;8.52;;;5.53;;
69463;SDS011;56665;41.106;16.688;2023-05-10T11:58:52;10.90;;;5.97;;
69463;SDS011;56665;41.106;16.688;2023-05-10T12:02:05;6.70;;;5.40;;
69463;SDS011;56665;41.106;16.688;2023-05-10T12:05:10;9.47;;;5.87;;
69463;SDS011;56665;41.106;16.688;2023-05-10T12:08:20;10.57;;;6.03;;
69463;SDS011;56665;41.106;16.688;2023-05-10T12:11:27;7.47;;;5.07;;
69463;SDS011;56665;41.106;16.688;2023-05-10T12:14:33;6.93;;;5.10;;
69463;SDS011;56665;41.106;16.688;2023-05-10T12:17:38;8.77;;;5.18;;
69463;SDS011;56665;41.106;16.688;2023-05-10T12:20:43;7.07;;;5.40;;
69463;SDS011;56665;41.106;16.688;2023-05-10T12:23:54;12.23;;;6.22;;
69463;SDS011;56665;41.106;16.688;2023-05-10T12:27:05;11.40;;;5.90;;
69463;SDS011;56665;41.106;16.688;2023-05-10T12:30:12;8.77;;;6.38;;
69463;SDS011;56665;41.106;16.688;2023-05-10T12:33:22;10.77;;;6.40;;
69463;SDS011;56665;41.106;16.688;2023-05-10T12:36:28;8.35;;;6.13;;
69463;SDS011;56665;41.106;16.688;2023-05-10T12:39:38;8.70;;;6.35;;
69463;SDS011;56665;41.106;16.688;2023-05-10T12:42:43;12.90;;;7.07;;
69463;SDS011;56665;41.106;16.688;2023-05-10T12:45:50;8.85;;;6.25;;
69463;SDS011;56665;41.106;16.688;2023-05-10T12:48:53;12.13;;;6.57;;
69463;SDS011;56665;41.106;16.688;2023-05-10T12:51:59;9.23;;;6.37;;
69463;SDS011;56665;41.106;16.688;2023-05-10T12:55:02;11.73;;;6.63;;
69463;SDS011;56665;41.106;16.688;2023-05-10T12:58:08;11.25;;;6.07;;
69463;SDS011;56665;41.106;16.688;2023-05-10T13:01:15;8.50;;;5.97;;
69463;SDS011;56665;41.106;16.688;2023-05-10T13:04:19;8.95;;;6.32;;
69463;SDS011;56665;41.106;16.688;2023-05-10T13:07:24;9.83;;;6.20;;
69463;SDS011;56665;41.106;16.688;2023-05-10T13:10:30;10.23;;;5.80;;
69463;SDS011;56665;41.106;16.688;2023-05-10T13:13:35;8.85;;;4.97;;
69463;SDS011;56665;41.106;16.688;2023-05-10T13:16:40;6.10;;;4.50;;
69463;SDS011;56665;41.106;16.688;2023-05-10T13:19:44;6.85;;;4.38;;
69463;SDS011;56665;41.106;16.688;2023-05-10T13:22:49;7.10;;;4.40;;
69463;SDS011;56665;41.106;16.688;2023-05-10T13:25:53;8.85;;;4.80;;
69463;SDS011;56665;41.106;16.688;2023-05-10T13:28:58;5.65;;;4.20;;
69463;SDS011;56665;41.106;16.688;2023-05-10T13:32:02;6.72;;;4.50;;
69463;SDS011;56665;41.106;16.688;2023-05-10T13:35:06;8.90;;;4.70;;
69463;SDS011;56665;41.106;16.688;2023-05-10T13:38:12;8.33;;;4.40;;
69463;SDS011;56665;41.106;16.688;2023-05-10T13:41:17;5.80;;;3.92;;
69463;SDS011;56665;41.106;16.688;2023-05-10T13:44:25;6.97;;;4.50;;
69463;SDS011;56665;41.106;16.688;2023-05-10T13:47:30;6.28;;;3.80;;
69463;SDS011;56665;41.106;16.688;2023-05-10T13:50:36;6.45;;;4.18;;
69463;SDS011;56665;41.106;16.688;2023-05-10T13:53:40;7.30;;;4.30;;
69463;SDS011;56665;41.106;16.688;2023-05-10T13:56:45;7.78;;;4.47;;
69463;SDS011;56665;41.106;16.688;2023-05-10T13:59:52;8.32;;;4.97;;
69463;SDS011;56665;41.106;16.688;2023-05-10T14:02:56;7.55;;;5.10;;
69463;SDS011;56665;41.106;16.688;2023-05-10T14:05:59;9.07;;;4.93;;
69463;SDS011;56665;41.106;16.688;2023-05-10T14:09:05;8.57;;;5.57;;
69463;SDS011;56665;41.106;16.688;2023-05-10T14:12:10;7.88;;;5.95;;
69463;SDS011;56665;41.106;16.688;2023-05-10T14:15:15;9.43;;;5.65;;
69463;SDS011;56665;41.106;16.688;2023-05-10T14:18:21;8.77;;;5.20;;
69463;SDS011;56665;41.106;16.688;2023-05-10T14:21:25;9.75;;;5.55;;
69463;SDS011;56665;41.106;16.688;2023-05-10T14:24:29;7.87;;;5.13;;
69463;SDS011;56665;41.106;16.688;2023-05-10T14:27:33;11.65;;;6.25;;
69463;SDS011;56665;41.106;16.688;2023-05-10T14:30:36;8.65;;;5.97;;
69463;SDS011;56665;41.106;16.688;2023-05-10T14:33:40;10.32;;;5.68;;
69463;SDS011;56665;41.106;16.688;2023-05-10T14:36:46;7.72;;;5.53;;
69463;SDS011;56665;41.106;16.688;2023-05-10T14:39:49;11.50;;;6.00;;
69463;SDS011;56665;41.106;16.688;2023-05-10T14:42:56;8.10;;;5.47;;
69463;SDS011;56665;41.106;16.688;2023-05-10T14:46:00;9.45;;;6.10;;
69463;SDS011;56665;41.106;16.688;2023-05-10T14:49:04;7.35;;;5.50;;
69463;SDS011;56665;41.106;16.688;2023-05-10T14:52:08;7.85;;;5.68;;
69463;SDS011;56665;41.106;16.688;2023-05-10T14:55:13;8.20;;;5.73;;
69463;SDS011;56665;41.106;16.688;2023-05-10T14:58:16;7.75;;;5.65;;
69463;SDS011;56665;41.106;16.688;2023-05-10T15:01:22;8.43;;;5.75;;
69463;SDS011;56665;41.106;16.688;2023-05-10T15:04:27;9.88;;;5.80;;
69463;SDS011;56665;41.106;16.688;2023-05-10T15:07:31;8.77;;;5.65;;
69463;SDS011;56665;41.106;16.688;2023-05-10T15:10:37;8.43;;;5.63;;
69463;SDS011;56665;41.106;16.688;2023-05-10T15:13:42;8.63;;;5.95;;
69463;SDS011;56665;41.106;16.688;2023-05-10T15:16:46;9.38;;;5.68;;
69463;SDS011;56665;41.106;16.688;2023-05-10T15:19:51;9.07;;;5.55;;
69463;SDS011;56665;41.106;16.688;2023-05-10T15:22:58;10.32;;;5.38;;
69463;SDS011;56665;41.106;16.688;2023-05-10T15:26:02;8.43;;;5.05;;
69463;SDS011;56665;41.106;16.688;2023-05-10T15:29:08;8.63;;;5.28;;
69463;SDS011;56665;41.106;16.688;2023-05-10T15:32:13;8.35;;;5.68;;
69463;SDS011;56665;41.106;16.688;2023-05-10T15:35:18;7.47;;;5.30;;
69463;SDS011;56665;41.106;16.688;2023-05-10T15:38:22;7.63;;;5.05;;
69463;SDS011;56665;41.106;16.688;2023-05-10T15:41:29;8.03;;;5.30;;
69463;SDS011;56665;41.106;16.688;2023-05-10T15:44:25;8.77;;;5.45;;
69463;SDS011;56665;41.106;16.688;2023-05-10T15:47:30;8.82;;;5.78;;
69463;SDS011;56665;41.106;16.688;2023-05-10T15:50:37;8.82;;;5.43;;
69463;SDS011;56665;41.106;16.688;2023-05-10T15:53:43;6.80;;;5.00;;
69463;SDS011;56665;41.106;16.688;2023-05-10T15:56:47;10.67;;;5.60;;
69463;SDS011;56665;41.106;16.688;2023-05-10T15:59:51;11.32;;;6.35;;
69463;SDS011;56665;41.106;16.688;2023-05-10T16:02:56;12.23;;;6.88;;
69463;SDS011;56665;41.106;16.688;2023-05-10T16:06:02;11.27;;;6.05;;
69463;SDS011;56665;41.106;16.688;2023-05-10T16:09:07;12.50;;;6.63;;
69463;SDS011;56665;41.106;16.688;2023-05-10T16:12:12;9.40;;;5.73;;
69463;SDS011;56665;41.106;16.688;2023-05-10T16:15:16;9.20;;;5.90;;
69463;SDS011;56665;41.106;16.688;2023-05-10T16:18:20;11.90;;;8.00;;
69463;SDS011;56665;41.106;16.688;2023-05-10T16:21:24;21.63;;;11.60;;
69463;SDS011;56665;41.106;16.688;2023-05-10T16:24:28;16.15;;;9.20;;
69463;SDS011;56665;41.106;16.688;2023-05-10T16:27:33;21.40;;;12.23;;
69463;SDS011;56665;41.106;16.688;2023-05-10T16:30:37;13.07;;;7.13;;
69463;SDS011;56665;41.106;16.688;2023-05-10T16:33:40;10.70;;;6.80;;
69463;SDS011;56665;41.106;16.688;2023-05-10T16:36:46;8.05;;;4.53;;
69463;SDS011;56665;41.106;16.688;2023-05-10T16:39:50;10.18;;;5.97;;
69463;SDS011;56665;41.106;16.688;2023-05-10T16:42:55;8.37;;;4.60;;
69463;SDS011;56665;41.106;16.688;2023-05-10T16:46:00;6.43;;;4.47;;
69463;SDS011;56665;41.106;16.688;2023-05-10T16:49:05;11.40;;;7.35;;
69463;SDS011;56665;41.106;16.688;2023-05-10T16:52:11;9.38;;;5.38;;
69463;SDS011;56665;41.106;16.688;2023-05-10T16:55:15;7.70;;;4.30;;
69463;SDS011;56665;41.106;16.688;2023-05-10T16:58:20;6.77;;;4.33;;
69463;SDS011;56665;41.106;16.688;2023-05-10T17:01:24;7.40;;;4.57;;
69463;SDS011;56665;41.106;16.688;2023-05-10T17:04:28;8.45;;;3.90;;
69463;SDS011;56665;41.106;16.688;2023-05-10T17:07:32;7.38;;;4.10;;
69463;SDS011;56665;41.106;16.688;2023-05-10T17:10:39;6.05;;;4.00;;
69463;SDS011;56665;41.106;16.688;2023-05-10T17:13:49;9.60;;;4.50;;
69463;SDS011;56665;41.106;16.688;2023-05-10T17:16:54;6.97;;;4.30;;
69463;SDS011;56665;41.106;16.688;2023-05-10T17:19:58;6.68;;;4.38;;
69463;SDS011;56665;41.106;16.688;2023-05-10T17:23:03;7.85;;;4.63;;
69463;SDS011;56665;41.106;16.688;2023-05-10T17:26:07;7.93;;;4.50;;
69463;SDS011;56665;41.106;16.688;2023-05-10T17:29:10;7.67;;;4.90;;
69463;SDS011;56665;41.106;16.688;2023-05-10T17:32:16;8.45;;;5.13;;
69463;SDS011;56665;41.106;16.688;2023-05-10T17:35:20;7.43;;;4.88;;
69463;SDS011;56665;41.106;16.688;2023-05-10T17:38:24;9.18;;;5.47;;
69463;SDS011;56665;41.106;16.688;2023-05-10T17:41:28;9.40;;;5.35;;
69463;SDS011;56665;41.106;16.688;2023-05-10T17:44:33;8.33;;;5.40;;
69463;SDS011;56665;41.106;16.688;2023-05-10T17:47:37;10.73;;;6.45;;
69463;SDS011;56665;41.106;16.688;2023-05-10T17:50:41;10.35;;;5.93;;
69463;SDS011;56665;41.106;16.688;2023-05-10T17:53:46;8.82;;;5.80;;
69463;SDS011;56665;41.106;16.688;2023-05-10T17:56:49;8.65;;;5.80;;
69463;SDS011;56665;41.106;16.688;2023-05-10T17:59:54;9.80;;;5.70;;
69463;SDS011;56665;41.106;16.688;2023-05-10T18:02:58;9.45;;;5.78;;
69463;SDS011;56665;41.106;16.688;2023-05-10T18:06:02;8.88;;;5.53;;
69463;SDS011;56665;41.106;16.688;2023-05-10T18:09:06;9.02;;;6.10;;
69463;SDS011;56665;41.106;16.688;2023-05-10T18:12:10;9.25;;;5.57;;
69463;SDS011;56665;41.106;16.688;2023-05-10T18:15:14;10.67;;;6.27;;
69463;SDS011;56665;41.106;16.688;2023-05-10T18:18:20;10.05;;;6.45;;
69463;SDS011;56665;41.106;16.688;2023-05-10T18:21:27;10.15;;;6.15;;
69463;SDS011;56665;41.106;16.688;2023-05-10T18:24:34;9.50;;;6.45;;